Time;durP1;ratioP1;P1;durP2;ratioP2;P2;SDS_P1;SDS_P2;PMS_P1;PMS_P2;Temp;Humidity;BMP_temperature;BMP_pressure;BME280_temperature;BME280_humidity;BME280_pressure;Samples;Min_cycle;Max_cycle;Signal;HPM_P1;HPM_P2
2022/07/24 00:01:39;;;;;;;11.63;3.30;;;;;;;15.43;100.00;100204.22;5048804;28;20036;-82
2022/07/24 00:04:06;;;;;;;6.25;3.15;;;;;;;15.41;100.00;100206.31;5062063;28;20040;-78
2022/07/24 00:06:31;;;;;;;11.23;3.55;;;;;;;15.35;100.00;100205.31;5020216;28;20036;-80
2022/07/24 00:08:57;;;;;;;14.88;3.53;;;;;;;15.18;100.00;100191.47;5054760;28;20033;-80
2022/07/24 00:11:23;;;;;;;6.15;2.30;;;;;;;15.29;100.00;100203.47;5058440;28;20115;-79
2022/07/24 00:13:48;;;;;;;8.93;3.25;;;;;;;15.24;100.00;100205.19;5034815;28;20021;-79
2022/07/24 00:16:14;;;;;;;9.43;3.45;;;;;;;15.23;100.00;100207.06;5050027;28;20028;-79
2022/07/24 00:18:40;;;;;;;13.07;3.58;;;;;;;15.12;100.00;100205.09;5029835;28;20037;-83
2022/07/24 00:21:05;;;;;;;7.85;3.08;;;;;;;15.11;100.00;100208.81;5034308;28;20028;-80
2022/07/24 00:23:31;;;;;;;12.95;3.70;;;;;;;15.07;100.00;100207.63;5064071;28;20033;-79
2022/07/24 00:25:57;;;;;;;12.30;3.58;;;;;;;14.96;100.00;100195.59;5051234;28;20037;-81
2022/07/24 00:28:23;;;;;;;10.18;3.50;;;;;;;14.99;100.00;100197.06;5032805;28;20064;-79
2022/07/24 00:30:51;;;;;;;9.52;3.45;;;;;;;14.94;100.00;100190.41;5051449;28;20505;-83
2022/07/24 00:33:17;;;;;;;8.00;2.88;;;;;;;14.93;100.00;100193.34;5034868;28;20028;-79
2022/07/24 00:35:43;;;;;;;11.95;3.80;;;;;;;14.95;100.00;100205.63;5023524;28;20032;-82
2022/07/24 00:38:09;;;;;;;12.70;4.10;;;;;;;14.93;100.00;100198.75;5050820;28;20477;-82
2022/07/24 00:40:35;;;;;;;9.63;3.55;;;;;;;14.92;100.00;100176.28;5028849;28;20032;-80
2022/07/24 00:43:02;;;;;;;10.93;3.70;;;;;;;15.09;100.00;100200.94;5037480;28;20059;-80
2022/07/24 00:45:28;;;;;;;9.50;3.47;;;;;;;15.02;100.00;100180.38;5049443;28;20467;-80
2022/07/24 00:47:53;;;;;;;8.57;3.78;;;;;;;15.10;100.00;100177.38;5057442;28;20025;-81
2022/07/24 00:50:19;;;;;;;9.23;3.35;;;;;;;15.18;100.00;100188.75;5042624;28;20032;-80
2022/07/24 00:52:45;;;;;;;6.75;2.40;;;;;;;15.24;100.00;100187.09;5053305;28;20028;-81
2022/07/24 00:55:11;;;;;;;9.18;3.47;;;;;;;15.16;100.00;100169.22;5014617;28;20090;-80
2022/07/24 00:57:37;;;;;;;10.15;3.13;;;;;;;15.28;100.00;100188.28;5048667;28;20101;-79
2022/07/24 01:00:06;;;;;;;13.05;3.60;;;;;;;15.17;100.00;100176.28;5067285;28;20020;-79
2022/07/24 01:02:33;;;;;;;15.45;3.58;;;;;;;15.23;100.00;100182.69;5035014;28;20089;-79
2022/07/24 01:04:59;;;;;;;5.78;2.70;;;;;;;15.25;100.00;100177.91;5069046;28;20119;-79
2022/07/24 01:07:24;;;;;;;8.15;2.75;;;;;;;15.33;100.00;100190.34;5063432;28;20487;-80
2022/07/24 01:09:50;;;;;;;10.18;3.42;;;;;;;15.31;100.00;100185.13;5032085;28;20046;-79
2022/07/24 01:12:17;;;;;;;9.05;2.72;;;;;;;15.33;100.00;100177.63;5027536;28;20458;-81
2022/07/24 01:14:43;;;;;;;6.95;3.05;;;;;;;15.43;100.00;100189.81;5031690;28;20056;-81
2022/07/24 01:17:09;;;;;;;10.25;3.10;;;;;;;15.47;100.00;100180.22;5030118;28;20131;-80
2022/07/24 01:19:34;;;;;;;6.10;2.63;;;;;;;15.17;100.00;100134.84;5050889;28;20431;-80
2022/07/24 01:22:00;;;;;;;8.38;3.05;;;;;;;15.46;100.00;100163.13;5031013;28;20037;-80
2022/07/24 01:24:25;;;;;;;11.25;3.13;;;;;;;15.48;100.00;100168.31;5066044;28;20029;-80
2022/07/24 01:26:51;;;;;;;14.20;3.67;;;;;;;15.50;100.00;100163.50;5040973;28;20036;-83
2022/07/24 01:29:17;;;;;;;8.00;3.00;;;;;;;15.51;100.00;100166.00;5028641;28;20040;-80
2022/07/24 01:31:43;;;;;;;8.05;3.35;;;;;;;15.49;100.00;100161.88;5036032;28;20039;-82
2022/07/24 01:34:08;;;;;;;11.00;3.20;;;;;;;15.48;100.00;100155.63;5046762;28;20107;-79
2022/07/24 01:36:34;;;;;;;10.80;3.75;;;;;;;15.56;100.00;100168.06;5042324;28;20436;-80
2022/07/24 01:39:00;;;;;;;10.32;3.65;;;;;;;15.54;100.00;100165.56;5040528;28;20048;-81
2022/07/24 01:41:25;;;;;;;11.77;3.90;;;;;;;15.45;100.00;100149.78;5014573;28;20043;-79
2022/07/24 01:43:51;;;;;;;5.22;2.40;;;;;;;15.48;100.00;100152.91;5035467;28;20083;-80
2022/07/24 01:46:16;;;;;;;15.45;3.38;;;;;;;15.30;100.00;100136.63;5024822;28;20040;-81
2022/07/24 01:48:43;;;;;;;3.25;1.90;;;;;;;15.28;100.00;100166.63;5033351;28;20037;-79
2022/07/24 01:51:09;;;;;;;6.70;2.17;;;;;;;15.14;100.00;100162.38;5018105;28;20089;-79
2022/07/24 01:53:35;;;;;;;8.60;3.15;;;;;;;15.04;100.00;100156.63;5036537;28;20534;-79
2022/07/24 01:56:01;;;;;;;10.73;3.80;;;;;;;14.93;100.00;100161.69;5027008;28;20035;-79
2022/07/24 01:58:27;;;;;;;9.70;3.38;;;;;;;14.94;100.00;100168.75;5066710;28;20028;-80
2022/07/24 02:00:55;;;;;;;8.70;3.15;;;;;;;14.95;100.00;100167.72;5067251;28;20952;-82
2022/07/24 02:03:21;;;;;;;9.27;2.92;;;;;;;14.94;100.00;100155.22;5025971;28;20059;-79
2022/07/24 02:05:47;;;;;;;8.00;3.25;;;;;;;14.97;100.00;100153.13;5017144;28;20024;-81
2022/07/24 02:08:12;;;;;;;7.55;2.67;;;;;;;14.96;100.00;100157.72;5055285;28;20501;-79
2022/07/24 02:10:39;;;;;;;9.60;3.42;;;;;;;14.98;100.00;100150.19;5029278;28;20034;-80
2022/07/24 02:13:04;;;;;;;7.10;3.00;;;;;;;15.02;100.00;100142.47;5045316;28;20497;-79
2022/07/24 02:15:30;;;;;;;11.38;3.20;;;;;;;15.03;100.00;100142.25;5031746;28;20025;-80
2022/07/24 02:17:57;;;;;;;13.43;3.95;;;;;;;15.06;100.00;100147.22;5033011;28;20139;-80
2022/07/24 02:20:24;;;;;;;12.32;3.22;;;;;;;15.05;100.00;100136.59;5023273;28;20128;-80
2022/07/24 02:22:49;;;;;;;8.20;3.08;;;;;;;15.00;100.00;100137.25;5045377;28;20394;-79
2022/07/24 02:25:15;;;;;;;12.77;3.70;;;;;;;15.04;100.00;100130.34;5061947;28;20032;-81
2022/07/24 02:27:41;;;;;;;8.32;3.75;;;;;;;15.04;100.00;100138.47;5037617;28;20029;-82
2022/07/24 02:30:12;;;;;;;8.85;3.38;;;;;;;14.98;100.00;100127.69;5036306;28;20051;-81
2022/07/24 02:33:03;;;;;;;11.32;3.03;;;;;;;14.92;100.00;100130.25;5029903;28;20533;-80
2022/07/24 02:35:28;;;;;;;7.20;3.05;;;;;;;14.92;100.00;100130.25;5050520;28;20021;-80
2022/07/24 02:38:27;;;;;;;12.80;3.92;;;;;;;14.92;100.00;100130.25;5013687;28;20082;-79
2022/07/24 02:40:52;;;;;;;8.77;2.75;;;;;;;14.87;100.00;100130.09;4991616;28;20522;-77
2022/07/24 02:43:23;;;;;;;5.00;2.78;;;;;;;14.90;100.00;100132.34;5046644;28;20039;-79
2022/07/24 02:45:50;;;;;;;0.70;0.68;;;;;;;14.90;100.00;100142.34;5011311;28;20135;-77
2022/07/24 02:48:16;;;;;;;0.30;0.30;;;;;;;14.82;100.00;100134.47;5016807;28;20033;-76
2022/07/24 02:50:41;;;;;;;0.43;0.43;;;;;;;14.84;100.00;100138.63;5038796;28;20382;-76
2022/07/24 02:53:07;;;;;;;0.98;0.43;;;;;;;14.86;100.00;100133.00;5058847;28;20112;-76
2022/07/24 02:55:32;;;;;;;0.35;0.35;;;;;;;14.87;100.00;100135.50;5049839;28;20024;-79
2022/07/24 02:57:58;;;;;;;0.43;0.38;;;;;;;14.85;100.00;100121.34;5034627;28;20482;-78
2022/07/24 03:00:24;;;;;;;0.38;0.38;;;;;;;14.86;100.00;100120.28;5049593;28;20029;-79
2022/07/24 03:02:49;;;;;;;0.25;0.25;;;;;;;14.85;100.00;100112.41;5057985;28;20040;-78
2022/07/24 03:05:15;;;;;;;0.20;0.20;;;;;;;14.86;100.00;100112.16;5028503;28;20382;-81
2022/07/24 03:07:41;;;;;;;0.30;0.30;;;;;;;15.00;100.00;100120.19;5064215;28;20502;-78
2022/07/24 03:10:09;;;;;;;0.20;0.20;;;;;;;14.99;100.00;100111.25;5030745;28;20033;-78
2022/07/24 03:12:34;;;;;;;0.55;0.50;;;;;;;15.03;100.00;100115.19;5047884;28;20036;-79
2022/07/24 03:15:01;;;;;;;0.30;0.30;;;;;;;15.07;100.00;100110.97;5054315;28;20028;-78
2022/07/24 03:17:26;;;;;;;0.20;0.20;;;;;;;15.05;100.00;100104.94;5069742;28;20074;-78
2022/07/24 03:19:52;;;;;;;0.20;0.20;;;;;;;15.06;100.00;100122.84;5028521;28;20036;-78
2022/07/24 03:22:18;;;;;;;0.30;0.30;;;;;;;15.04;100.00;100108.69;5045344;28;20462;-78
2022/07/24 03:24:44;;;;;;;0.20;0.20;;;;;;;15.05;100.00;100102.22;5035173;28;20048;-78
2022/07/24 03:27:09;;;;;;;0.20;0.20;;;;;;;15.06;100.00;100108.50;5066015;28;20039;-78
2022/07/24 03:29:35;;;;;;;0.20;0.20;;;;;;;15.05;100.00;100099.53;5059083;28;20063;-78
2022/07/24 03:32:00;;;;;;;0.20;0.20;;;;;;;15.01;100.00;100097.50;5042312;28;20033;-78
2022/07/24 03:34:26;;;;;;;0.20;0.20;;;;;;;14.99;100.00;100100.41;5062889;28;20042;-78
2022/07/24 03:36:52;;;;;;;0.20;0.20;;;;;;;14.98;100.00;100104.19;5049110;28;20033;-79
2022/07/24 03:39:17;;;;;;;0.20;0.20;;;;;;;14.97;100.00;100107.91;5032531;28;20032;-78
2022/07/24 03:41:43;;;;;;;0.20;0.20;;;;;;;14.93;100.00;100104.84;5065868;28;20028;-79
2022/07/24 03:44:09;;;;;;;0.20;0.20;;;;;;;14.92;100.00;100113.16;5039720;28;20033;-78
2022/07/24 03:46:35;;;;;;;0.20;0.20;;;;;;;14.86;100.00;100097.81;5044344;28;20047;-78
2022/07/24 03:49:00;;;;;;;0.30;0.30;;;;;;;14.85;100.00;100097.00;5026856;28;20461;-78
2022/07/24 03:51:26;;;;;;;0.20;0.20;;;;;;;14.84;100.00;100094.50;5045717;28;20501;-82
2022/07/24 03:53:52;;;;;;;1.75;0.65;;;;;;;14.81;100.00;100074.09;5071938;28;20099;-80
2022/07/24 03:56:18;;;;;;;0.30;0.30;;;;;;;14.83;100.00;100084.72;5019535;28;20036;-81
2022/07/24 03:58:44;;;;;;;0.20;0.20;;;;;;;14.82;100.00;100080.34;5045016;28;20474;-78
2022/07/24 04:01:09;;;;;;;0.22;0.22;;;;;;;14.80;100.00;100071.63;5047654;28;20123;-78
2022/07/24 04:03:35;;;;;;;0.20;0.20;;;;;;;14.81;100.00;100074.09;5049470;28;20542;-78
2022/07/24 04:06:02;;;;;;;0.20;0.20;;;;;;;14.82;100.00;100064.97;5055529;28;20033;-79
2022/07/24 04:08:28;;;;;;;0.30;0.30;;;;;;;14.86;100.00;100074.28;5068383;28;20135;-78
2022/07/24 04:10:56;;;;;;;0.50;0.40;;;;;;;14.87;100.00;100064.28;5038206;28;20033;-80
2022/07/24 04:13:26;;;;;;;0.28;0.28;;;;;;;14.85;100.00;100064.50;5051081;28;20476;-80
2022/07/24 04:15:53;;;;;;;0.30;0.30;;;;;;;14.87;100.00;100064.28;5033211;28;20040;-79
2022/07/24 04:18:19;;;;;;;0.20;0.20;;;;;;;14.90;100.00;100064.69;5050077;28;20510;-78
2022/07/24 04:20:45;;;;;;;0.30;0.30;;;;;;;14.94;100.00;100073.16;5043494;28;20044;-79
2022/07/24 04:23:10;;;;;;;0.20;0.20;;;;;;;14.91;100.00;100063.63;5067886;28;20405;-80
2022/07/24 04:25:36;;;;;;;0.20;0.20;;;;;;;14.99;100.00;100067.09;5031822;28;20040;-78
2022/07/24 04:28:02;;;;;;;0.20;0.20;;;;;;;14.90;100.00;100045.72;5050514;28;20033;-79
2022/07/24 04:30:28;;;;;;;0.20;0.20;;;;;;;15.00;100.00;100055.22;5051506;28;20548;-78
2022/07/24 04:32:54;;;;;;;0.28;0.28;;;;;;;15.03;100.00;100060.19;5029743;28;20068;-79
2022/07/24 04:35:20;;;;;;;0.40;0.40;;;;;;;15.03;100.00;100055.63;5069265;28;20028;-80
2022/07/24 04:37:45;;;;;;;0.40;0.40;;;;;;;15.03;100.00;100049.34;5059753;28;20493;-80
2022/07/24 04:40:12;;;;;;;0.20;0.20;;;;;;;15.04;100.00;100041.00;5033291;28;20553;-78
2022/07/24 04:42:38;;;;;;;0.20;0.20;;;;;;;15.04;100.00;100038.31;5032053;28;20048;-81
2022/07/24 04:45:05;;;;;;;0.30;0.30;;;;;;;15.00;100.00;100030.84;5030721;28;20064;-79
2022/07/24 04:47:31;;;;;;;0.30;0.30;;;;;;;15.00;100.00;100025.44;5036768;28;20036;-79
2022/07/24 04:49:56;;;;;;;0.20;0.20;;;;;;;15.07;100.00;100035.16;5048570;28;20087;-79
2022/07/24 04:52:22;;;;;;;0.40;0.40;;;;;;;15.10;100.00;100033.88;5028589;28;20374;-81
2022/07/24 04:54:48;;;;;;;0.22;0.22;;;;;;;15.13;100.00;100033.44;5052305;28;20021;-79
2022/07/24 04:57:13;;;;;;;14.90;1.42;;;;;;;15.07;100.00;100024.31;5036004;28;20033;-78
2022/07/24 04:59:39;;;;;;;1.60;1.50;;;;;;;15.21;100.00;100030.44;5049544;28;20036;-79
2022/07/24 05:02:05;;;;;;;0.30;0.30;;;;;;;15.21;100.00;100029.59;5026134;28;20048;-80
2022/07/24 05:04:30;;;;;;;0.30;0.30;;;;;;;15.27;100.00;100029.56;5023674;28;20044;-78
2022/07/24 05:06:56;;;;;;;0.28;0.28;;;;;;;15.32;100.00;100031.56;5045805;28;20059;-79
2022/07/24 05:09:21;;;;;;;0.30;0.30;;;;;;;15.31;100.00;100022.63;5061765;28;20131;-81
2022/07/24 05:11:47;;;;;;;0.40;0.40;;;;;;;15.33;100.00;100016.97;5050756;28;20394;-80
2022/07/24 05:14:12;;;;;;;0.65;0.65;;;;;;;15.33;100.00;100006.97;5044661;28;20032;-80
2022/07/24 05:16:38;;;;;;;0.45;0.45;;;;;;;15.32;100.00;100002.63;5068162;28;20028;-78
2022/07/24 05:19:04;;;;;;;1.40;0.75;;;;;;;15.43;100.00;100014.59;5064759;28;20489;-78
2022/07/24 05:21:30;;;;;;;1.20;1.05;;;;;;;15.48;100.00;100012.03;5066372;28;20571;-79
2022/07/24 05:23:56;;;;;;;2.70;1.23;;;;;;;15.50;100.00;100012.59;5065675;28;20075;-81
2022/07/24 05:26:21;;;;;;;3.42;1.42;;;;;;;15.47;100.00;100001.41;5053516;28;20033;-80
2022/07/24 05:28:47;;;;;;;1.30;0.95;;;;;;;15.45;100.00;99995.38;5064464;28;20501;-78
2022/07/24 05:31:12;;;;;;;5.40;1.50;;;;;;;15.53;100.00;100011.31;5051027;28;20068;-79
2022/07/24 05:33:38;;;;;;;3.42;1.23;;;;;;;15.45;100.00;99993.50;5054519;28;20506;-79
2022/07/24 05:36:04;;;;;;;6.57;2.05;;;;;;;15.57;100.00;100002.53;5053425;28;20032;-81
2022/07/24 05:38:30;;;;;;;6.20;2.25;;;;;;;15.60;100.00;99998.53;5047236;28;20033;-79
2022/07/24 05:40:56;;;;;;;4.13;1.67;;;;;;;15.57;100.00;99993.56;5067691;28;20102;-79
2022/07/24 05:43:22;;;;;;;6.38;2.00;;;;;;;15.57;100.00;99983.56;5049335;28;20025;-79
2022/07/24 05:45:48;;;;;;;5.60;2.45;;;;;;;15.57;100.00;99985.44;5048943;28;20129;-78
2022/07/24 05:48:13;;;;;;;4.30;1.50;;;;;;;15.58;100.00;99976.25;5051113;28;20279;-78
2022/07/24 05:50:39;;;;;;;10.00;2.42;;;;;;;15.60;100.00;99968.72;5061210;28;20021;-78
2022/07/24 05:53:05;;;;;;;11.20;3.28;;;;;;;15.69;100.00;99974.69;5041355;28;20033;-80
2022/07/24 05:55:30;;;;;;;5.50;2.35;;;;;;;15.79;100.00;99985.81;5047939;28;20458;-80
2022/07/24 05:57:56;;;;;;;9.13;2.75;;;;;;;15.87;100.00;99973.81;5027544;28;20475;-79
2022/07/24 06:00:22;;;;;;;7.05;2.75;;;;;;;15.96;100.00;99975.16;5028296;28;20025;-78
2022/07/24 06:02:48;;;;;;;9.18;3.33;;;;;;;15.91;100.00;99942.50;5014037;28;20029;-79
2022/07/24 06:05:14;;;;;;;8.15;2.92;;;;;;;16.14;100.00;99971.53;5016874;28;20044;-80
2022/07/24 06:07:43;;;;;;;5.78;2.13;;;;;;;16.15;100.00;99970.50;5031277;28;20506;-80
2022/07/24 06:10:09;;;;;;;4.43;2.15;;;;;;;16.19;100.00;99961.66;5019456;28;20036;-80
2022/07/24 06:12:35;;;;;;;5.00;1.80;;;;;;;16.23;100.00;99968.28;5056314;28;20032;-81
2022/07/24 06:15:04;;;;;;;7.47;3.42;;;;;;;16.25;100.00;99966.16;5058955;28;20472;-79
2022/07/24 06:17:29;;;;;;;14.50;3.83;;;;;;;16.24;100.00;99961.78;5061446;28;20028;-81
2022/07/24 06:19:55;;;;;;;7.78;2.25;;;;;;;16.28;100.00;99962.16;5050112;28;20422;-81
2022/07/24 06:22:21;;;;;;;8.20;3.67;;;;;;;16.30;100.00;99961.91;5045500;28;20110;-79
2022/07/24 06:24:46;;;;;;;6.22;2.63;;;;;;;16.29;100.00;99952.13;5068835;28;20020;-79
2022/07/24 06:27:12;;;;;;;7.35;3.15;;;;;;;16.27;100.00;99961.34;5058606;28;20036;-80
2022/07/24 06:29:37;;;;;;;7.97;3.03;;;;;;;16.28;100.00;99959.44;5023515;28;20048;-79
2022/07/24 06:32:03;;;;;;;9.45;3.92;;;;;;;16.33;100.00;99962.28;5025132;28;20032;-80
2022/07/24 06:34:29;;;;;;;12.23;3.80;;;;;;;16.35;100.00;99956.63;5041193;28;20111;-79
2022/07/24 06:36:55;;;;;;;8.75;3.00;;;;;;;16.30;100.00;99951.91;5039882;28;20394;-79
2022/07/24 06:39:20;;;;;;;7.07;2.53;;;;;;;16.22;100.00;99934.09;5050881;28;20025;-80
2022/07/24 06:41:46;;;;;;;10.18;3.58;;;;;;;16.35;100.00;99952.00;5037097;28;20070;-79
2022/07/24 06:44:11;;;;;;;8.43;2.92;;;;;;;16.55;100.00;99950.88;5029207;28;20095;-79
2022/07/24 06:46:37;;;;;;;5.65;2.55;;;;;;;16.68;100.00;99950.66;5031903;28;20485;-80
2022/07/24 06:49:03;;;;;;;9.07;2.90;;;;;;;16.69;100.00;99944.16;5030747;28;20035;-81
2022/07/24 06:51:28;;;;;;;9.50;3.38;;;;;;;16.63;100.00;99940.50;5043163;28;20033;-79
2022/07/24 06:53:54;;;;;;;6.72;2.97;;;;;;;16.79;100.00;99933.56;5010298;28;20029;-80
2022/07/24 06:56:19;;;;;;;8.18;3.83;;;;;;;17.10;100.00;99937.78;5027336;28;20139;-79
2022/07/24 06:58:46;;;;;;;11.68;4.00;;;;;;;17.27;100.00;99945.19;5062136;28;20038;-81
2022/07/24 07:01:15;;;;;;;8.95;3.10;;;;;;;17.35;100.00;99929.31;5059790;28;20086;-79
2022/07/24 07:03:49;;;;;;;;;;;;;;;17.66;100.00;99948.97;5033414;28;22477;-78
2022/07/24 07:06:16;;;;;;;10.43;3.40;;;;;;;17.97;100.00;99944.16;5028431;28;20022;-81
2022/07/24 07:08:41;;;;;;;12.63;3.88;;;;;;;17.93;100.00;99930.19;5044996;28;20045;-78
2022/07/24 07:11:07;;;;;;;7.80;2.75;;;;;;;18.08;100.00;99934.28;5062845;28;20036;-80
2022/07/24 07:13:33;;;;;;;11.90;3.97;;;;;;;18.16;100.00;99940.13;5068318;28;20063;-80
2022/07/24 07:16:07;;;;;;;9.32;3.05;;;;;;;18.03;100.00;99935.00;5049050;28;20078;-80
2022/07/24 07:18:35;;;;;;;10.15;3.80;;;;;;;17.93;100.00;99927.47;5055797;28;20048;-79
2022/07/24 07:21:04;;;;;;;9.95;2.95;;;;;;;17.85;100.00;99937.94;5013149;28;20543;-80
2022/07/24 07:23:48;;;;;;;10.35;3.20;;;;;;;17.86;100.00;99932.25;5030833;28;20107;-80
2022/07/24 07:26:17;;;;;;;9.43;2.65;;;;;;;18.00;100.00;99940.94;5031952;28;20125;-80
2022/07/24 07:29:07;;;;;;;10.88;2.95;;;;;;;17.86;100.00;99925.97;5017814;28;20041;-82
2022/07/24 07:31:33;;;;;;;7.97;3.15;;;;;;;18.10;100.00;99934.81;5063466;28;20041;-79
2022/07/24 07:33:58;;;;;;;7.82;2.38;;;;;;;18.19;100.00;99925.22;5014811;28;20046;-81
2022/07/24 07:36:25;;;;;;;8.05;3.35;;;;;;;18.39;100.00;99930.16;5045563;28;20260;-80
2022/07/24 07:38:50;;;;;;;9.32;2.47;;;;;;;18.65;100.00;99929.47;5038680;28;20449;-82
2022/07/24 07:41:19;;;;;;;5.30;2.75;;;;;;;18.63;100.00;99888.06;5040974;28;20028;-81
2022/07/24 07:43:48;;;;;;;4.10;2.38;;;;;;;18.48;100.00;99900.63;5039141;28;20231;-80
2022/07/24 07:46:14;;;;;;;6.68;3.28;;;;;;;18.49;100.00;99926.78;5019504;28;20039;-81
2022/07/24 07:48:40;;;;;;;8.85;4.20;;;;;;;18.26;100.00;99928.59;5047178;28;20032;-81
2022/07/24 07:51:06;;;;;;;8.13;2.72;;;;;;;18.16;100.00;99909.38;5037697;28;20493;-81
2022/07/24 07:53:35;;;;;;;13.82;3.97;;;;;;;18.38;100.00;99926.59;5040480;28;20032;-81
2022/07/24 07:56:21;;;;;;;6.72;2.70;;;;;;;18.65;100.00;99923.19;5025373;28;20033;-80
2022/07/24 07:58:47;;;;;;;9.82;5.00;;;;;;;18.59;100.00;99930.47;5028789;28;20054;-82
2022/07/24 08:01:13;;;;;;;10.48;3.50;;;;;;;18.22;100.00;99927.44;5027272;28;20513;-80
2022/07/24 08:03:38;;;;;;;7.65;3.17;;;;;;;17.94;100.00;99899.22;5017146;28;20563;-80
2022/07/24 08:06:04;;;;;;;8.23;2.67;;;;;;;18.02;100.00;99925.19;5048931;28;20583;-81
2022/07/24 08:08:30;;;;;;;8.20;3.13;;;;;;;18.32;100.00;99911.28;5028519;28;20129;-80
2022/07/24 08:10:56;;;;;;;17.90;3.05;;;;;;;18.05;100.00;99902.09;5029925;28;20471;-81
2022/07/24 08:13:21;;;;;;;7.05;3.03;;;;;;;18.12;100.00;99908.22;5065418;28;20471;-79
2022/07/24 08:15:47;;;;;;;5.30;2.42;;;;;;;18.49;100.00;99888.66;5048553;28;20040;-80
2022/07/24 08:18:13;;;;;;;4.63;2.50;;;;;;;18.74;100.00;99896.41;5030832;28;20112;-80
2022/07/24 08:20:38;;;;;;;10.23;3.17;;;;;;;18.74;99.84;99899.94;5024956;28;20390;-81
2022/07/24 08:23:06;;;;;;;11.05;3.15;;;;;;;19.02;98.44;99898.97;5059874;28;20037;-80
2022/07/24 08:25:32;;;;;;;4.50;2.17;;;;;;;19.30;97.06;99888.97;5048408;28;20040;-80
2022/07/24 08:27:58;;;;;;;6.45;2.70;;;;;;;19.52;96.11;99897.94;5066501;28;20170;-82
2022/07/24 08:30:26;;;;;;;6.82;3.05;;;;;;;19.50;96.46;99900.13;5058901;28;20029;-81
2022/07/24 08:32:52;;;;;;;4.18;2.20;;;;;;;19.15;95.12;99889.59;5039388;28;20068;-80
2022/07/24 08:35:18;;;;;;;11.18;3.22;;;;;;;18.48;99.04;99893.28;5047698;28;20033;-83
2022/07/24 08:37:44;;;;;;;10.55;2.60;;;;;;;18.42;99.73;99884.22;5054054;28;20500;-81
2022/07/24 08:40:10;;;;;;;5.55;2.40;;;;;;;18.77;99.08;99883.13;5048027;28;20033;-80
2022/07/24 08:42:36;;;;;;;8.45;3.45;;;;;;;19.67;92.48;99880.13;5018686;28;20485;-80
2022/07/24 08:45:04;;;;;;;9.65;3.28;;;;;;;20.33;87.45;99883.44;5049620;28;20135;-82
2022/07/24 08:47:31;;;;;;;10.63;3.90;;;;;;;20.46;85.62;99867.72;5010789;28;20505;-80
2022/07/24 08:49:58;;;;;;;9.90;3.15;;;;;;;20.48;86.50;99869.09;5052007;28;20078;-80
2022/07/24 08:52:25;;;;;;;7.32;2.33;;;;;;;20.71;83.99;99864.31;5017092;28;20028;-81
2022/07/24 08:54:51;;;;;;;6.55;2.60;;;;;;;21.01;83.51;99869.97;5053077;28;20108;-80
2022/07/24 08:57:17;;;;;;;6.90;2.78;;;;;;;21.07;82.24;99866.16;5027912;28;20024;-81
2022/07/24 08:59:43;;;;;;;9.45;3.40;;;;;;;21.36;81.68;99862.97;5023015;28;20394;-81
2022/07/24 09:02:09;;;;;;;11.38;4.43;;;;;;;21.71;81.46;99850.50;5044196;28;20111;-80
2022/07/24 09:04:48;;;;;;;7.63;2.40;;;;;;;21.60;80.13;99848.84;5045373;28;20390;-80
2022/07/24 09:07:16;;;;;;;8.75;3.20;;;;;;;21.51;79.05;99848.53;5011852;28;20422;-80
2022/07/24 09:09:44;;;;;;;8.35;3.17;;;;;;;21.60;77.54;99841.44;5036309;28;20475;-80
2022/07/24 09:12:16;;;;;;;6.45;2.60;;;;;;;21.60;74.79;99835.97;5039756;28;20390;-82
2022/07/24 09:14:44;;;;;;;11.65;2.95;;;;;;;22.06;73.42;99848.88;5037497;28;20159;-81
2022/07/24 09:17:15;;;;;;;8.13;2.63;;;;;;;21.69;73.82;99844.47;5042987;28;20036;-78
2022/07/24 09:19:55;;;;;;;9.35;2.38;;;;;;;21.19;75.41;99833.09;5029054;28;20085;-81
2022/07/24 09:22:41;;;;;;;5.97;2.60;;;;;;;21.40;74.19;99833.19;5044690;28;20410;-80
2022/07/24 09:25:14;;;;;;;8.25;3.03;;;;;;;21.35;75.11;99838.63;5035462;28;20175;-82
2022/07/24 09:28:00;;;;;;;4.53;2.50;;;;;;;21.27;74.86;99831.75;5014747;28;20103;-81
2022/07/24 09:30:32;;;;;;;10.77;2.97;;;;;;;21.41;75.14;99835.66;5014625;28;20040;-80
2022/07/24 09:33:02;;;;;;;9.63;3.15;;;;;;;21.37;74.65;99834.53;5032695;28;20032;-80
2022/07/24 09:35:39;;;;;;;5.93;2.30;;;;;;;20.80;76.12;99797.19;5016263;28;20032;-81
2022/07/24 09:38:07;;;;;;;6.32;2.53;;;;;;;20.76;76.50;99829.66;5068535;28;20025;-81
2022/07/24 09:40:38;;;;;;;6.57;3.30;;;;;;;20.60;78.48;99823.28;5048844;28;20063;-81
2022/07/24 09:43:16;;;;;;;5.80;2.55;;;;;;;20.05;82.65;99824.53;5016712;28;20025;-81
2022/07/24 09:46:06;;;;;;;4.05;2.15;;;;;;;19.31;89.49;99820.56;5035891;28;20382;-82
2022/07/24 09:48:39;;;;;;;9.48;3.50;;;;;;;18.65;96.88;99814.28;5045458;28;20029;-81
2022/07/24 09:51:16;;;;;;;6.03;2.53;;;;;;;18.11;100.00;99797.75;5052932;28;20032;-80
2022/07/24 09:53:44;;;;;;;7.57;1.95;;;;;;;18.03;100.00;99815.31;5035688;28;20319;-79
2022/07/24 09:56:09;;;;;;;0.98;0.77;;;;;;;17.88;100.00;99824.03;5031375;28;20089;-79
2022/07/24 09:58:40;;;;;;;1.83;1.15;;;;;;;17.55;100.00;99812.03;5043688;28;20033;-83
2022/07/24 10:01:08;;;;;;;1.85;1.10;;;;;;;17.29;100.00;99823.50;5039586;28;20035;-78
2022/07/24 10:03:38;;;;;;;0.60;0.60;;;;;;;17.03;100.00;99804.00;5017351;28;20049;-78
2022/07/24 10:06:07;;;;;;;2.63;1.70;;;;;;;17.50;100.00;99805.69;5049364;28;20462;-78
2022/07/24 10:08:33;;;;;;;1.65;1.00;;;;;;;17.72;100.00;99809.34;5032077;28;20025;-82
2022/07/24 10:11:00;;;;;;;0.93;0.88;;;;;;;17.72;100.00;99825.66;5043868;28;20708;-85
2022/07/24 10:13:27;;;;;;;0.95;0.88;;;;;;;17.94;100.00;99809.47;5026574;28;20034;-84
2022/07/24 10:16:12;;;;;;;0.70;0.70;;;;;;;18.39;100.00;99802.22;5027210;28;20039;-84
2022/07/24 10:18:43;;;;;;;0.95;0.80;;;;;;;18.61;100.00;99813.16;5049886;28;20051;-84
2022/07/24 10:21:17;;;;;;;0.60;0.60;;;;;;;19.25;100.00;99807.97;5043976;28;20073;-85
2022/07/24 10:24:07;;;;;;;0.47;0.47;;;;;;;20.51;100.00;99804.91;5010617;28;20049;-85
2022/07/24 10:26:44;;;;;;;2.75;1.42;;;;;;;21.67;95.71;99792.78;5065655;28;20107;-85
2022/07/24 10:29:28;;;;;;;1.00;0.60;;;;;;;22.04;91.48;99799.84;5036966;28;20402;-86
2022/07/24 10:31:56;;;;;;;0.98;0.90;;;;;;;22.46;86.92;99773.25;5026627;28;20043;-87
2022/07/24 10:34:39;;;;;;;0.60;0.60;;;;;;;22.99;85.44;99801.84;5026781;28;20028;-87
2022/07/24 10:37:20;;;;;;;1.00;0.80;;;;;;;22.28;87.70;99808.38;5037367;28;21073;-86
2022/07/24 10:39:49;;;;;;;0.60;0.50;;;;;;;21.66;90.84;99795.75;5033926;28;20420;-86
2022/07/24 10:42:15;;;;;;;0.60;0.60;;;;;;;21.13;92.63;99787.72;5031904;28;20033;-87
2022/07/24 10:44:40;;;;;;;1.25;0.73;;;;;;;21.03;94.06;99815.00;5040220;28;20521;-86
2022/07/24 10:47:08;;;;;;;0.40;0.40;;;;;;;20.76;95.88;99790.59;5049758;28;20044;-87
2022/07/24 10:49:40;;;;;;;1.38;1.05;;;;;;;20.79;95.38;99800.97;5029341;28;20521;-88
2022/07/24 10:52:21;;;;;;;1.27;0.73;;;;;;;21.01;93.96;99801.63;5061924;28;20025;-88
2022/07/24 10:54:47;;;;;;;0.90;0.88;;;;;;;21.43;92.53;99800.66;5042027;28;20046;-84
2022/07/24 10:57:13;;;;;;;0.57;0.57;;;;;;;22.15;89.12;99787.81;5048866;28;20032;-84
2022/07/24 10:59:42;;;;;;;2.40;1.08;;;;;;;21.84;90.75;99781.53;5065221;28;20028;-83
2022/07/24 11:02:29;;;;;;;1.10;0.85;;;;;;;21.01;93.99;99787.13;5042344;28;20075;-84
2022/07/24 11:05:31;;;;;;;0.75;0.60;;;;;;;20.01;99.27;99779.78;5044383;28;20128;-86
2022/07/24 11:08:12;;;;;;;0.80;0.80;;;;;;;19.24;100.00;99761.91;5048518;28;20024;-87
2022/07/24 11:10:49;;;;;;;5.88;1.40;;;;;;;19.30;100.00;99766.31;5038398;28;20085;-83
2022/07/24 11:13:45;;;;;;;2.15;1.20;;;;;;;19.58;100.00;99778.00;5021811;28;20133;-87
2022/07/24 11:16:11;;;;;;;7.32;2.17;;;;;;;19.08;100.00;99780.00;5022056;28;20033;-87
2022/07/24 11:18:42;;;;;;;1.27;0.80;;;;;;;18.48;100.00;99769.97;5064571;28;20051;-83
2022/07/24 11:21:08;;;;;;;1.00;0.80;;;;;;;17.83;100.00;99769.56;5053461;28;20063;-79
2022/07/24 11:23:35;;;;;;;0.30;0.30;;;;;;;17.44;100.00;99774.88;5055967;28;20040;-83
2022/07/24 11:26:31;;;;;;;0.43;0.43;;;;;;;17.38;100.00;99775.84;5032730;28;20043;-81